Humidity-temperature Sensor

Selected Measurement Type: Relative Humidity

 
Relative Humidity [%]     6 entries per hour
Showing data from 8/10/2022 (03:00:00 Z) to 8/9/2022 (00:01:00 Z)
Previous Next [ Day | 3-Days | 7-Days ]
First Last
Prev [ Day | 3-Days | 7-Days ] Next
First Last

Start Time:     :
End Time:     :     
Time (in GMT) :00 :50 :40 :30 :20 :10
Previous Next [ Day | 3-Days | 7-Days ]
First Last
Prev [ Day | 3-Days | 7-Days ] Next
First Last


123 => good data
MM => data is determined as missing
-- => data not received/configured
Back to Top Back to Top
8/10/2022 03:00 to 2:10 86.98 87.24 87.12 87.70 87.47 86.98
8/10/2022 02:00 to 1:10 87.16 87.18 86.65 86.65 86.48 86.22
8/10/2022 01:00 to 0:10 86.22 86.94 87.37 87.47 88.00 88.83
8/10/2022 00:00 to 23:10 90.02 89.73 88.62 87.02 86.36 85.97
8/9/2022 23:00 to 22:10 86.77 87.22 87.33 87.39 87.16 87.39
8/9/2022 22:00 to 21:10 -- -- -- -- -- --
8/9/2022 21:00 to 20:10 86.44 86.24 86.16 85.95 85.89 86.07
8/9/2022 20:00 to 19:10 86.34 86.71 86.69 86.79 86.87 86.92
8/9/2022 19:00 to 18:10 87.02 87.31 87.08 86.55 86.01 86.09
8/9/2022 18:00 to 17:10 86.05 86.13 86.59 86.87 86.71 87.41
8/9/2022 17:00 to 16:10 87.80 87.45 87.10 87.04 87.49 87.82
8/9/2022 16:00 to 15:10 87.98 87.84 87.55 86.81 86.50 86.69
8/9/2022 15:00 to 14:10 86.79 85.76 84.86 83.57 83.30 83.13
8/9/2022 14:00 to 13:10 83.61 83.96 84.18 84.31 84.72 84.96
8/9/2022 13:00 to 12:10 85.76 86.05 86.05 86.36 86.77 87.08
8/9/2022 12:00 to 11:10 87.35 87.84 88.33 87.86 87.96 88.37
8/9/2022 11:00 to 10:10 89.18 90.35 91.19 91.25 91.29 91.17
8/9/2022 10:00 to 9:10 91.23 91.23 91.03 90.27 88.79 86.55
8/9/2022 09:00 to 8:10 86.09 85.89 86.57 86.92 87.76 88.58
8/9/2022 08:00 to 7:10 89.42 89.55 88.60 88.68 88.44 88.15
8/9/2022 07:00 to 6:10 88.54 88.77 88.19 87.86 88.15 88.72
8/9/2022 06:00 to 5:10 90.76 92.34 93.74 94.87 94.79 94.70
8/9/2022 05:00 to 4:10 94.48 94.66 94.37 93.72 92.53 91.27
8/9/2022 04:00 to 3:10 90.49 90.41 91.03 90.16 88.85 86.48
8/9/2022 03:00 to 2:10 84.61 84.68 84.88 84.57 84.06 83.85
8/9/2022 02:00 to 1:10 84.14 83.98 84.59 85.29 85.48 84.96
8/9/2022 01:00 to 0:10 85.66 86.30 86.28 86.59 86.85 87.53